Time;durP1;ratioP1;P1;durP2;ratioP2;P2;SDS_P1;SDS_P2;PMS_P1;PMS_P2;Temp;Humidity;BMP_temperature;BMP_pressure;BME280_temperature;BME280_humidity;BME280_pressure;Samples;Min_cycle;Max_cycle;Signal;HPM_P1;HPM_P2
2021/08/30 00:00:07;;;;;;;5.47;3.40;;;15.90;99.90;;;;;;5015801;28;20452;-46
2021/08/30 00:02:34;;;;;;;8.33;3.70;;;15.90;99.90;;;;;;5015575;28;20946;-46
2021/08/30 00:05:02;;;;;;;3.73;3.03;;;15.90;99.90;;;;;;5015850;28;20445;-49
2021/08/30 00:07:30;;;;;;;5.23;3.67;;;15.90;99.90;;;;;;5016378;28;20441;-48
2021/08/30 00:09:57;;;;;;;3.63;3.13;;;15.90;99.90;;;;;;5015180;28;20465;-45
2021/08/30 00:12:23;;;;;;;5.83;3.60;;;15.90;99.90;;;;;;5015723;28;20819;-48
2021/08/30 00:14:50;;;;;;;4.43;3.57;;;16.00;99.90;;;;;;5015837;28;20814;-45
2021/08/30 00:17:17;;;;;;;4.70;3.70;;;16.00;99.90;;;;;;5015496;28;20449;-47
2021/08/30 00:19:43;;;;;;;3.60;3.03;;;16.00;99.90;;;;;;5015811;28;20445;-45
2021/08/30 00:22:10;;;;;;;7.03;3.37;;;16.10;99.90;;;;;;5015635;28;20485;-48
2021/08/30 00:24:38;;;;;;;3.40;2.93;;;16.10;99.90;;;;;;5015911;28;20449;-44
2021/08/30 00:27:05;;;;;;;3.57;2.97;;;16.10;99.90;;;;;;5015416;28;20457;-45
2021/08/30 00:29:32;;;;;;;4.10;3.40;;;16.10;99.90;;;;;;5015559;28;20519;-44
2021/08/30 00:31:59;;;;;;;3.60;2.80;;;16.10;99.90;;;;;;5015049;28;20472;-49
2021/08/30 00:34:26;;;;;;;4.10;3.23;;;16.10;99.90;;;;;;5015232;28;20794;-50
2021/08/30 00:36:52;;;;;;;5.93;4.23;;;16.10;99.90;;;;;;5015377;28;20820;-45
2021/08/30 00:39:20;;;;;;;4.43;3.50;;;16.10;99.90;;;;;;5015769;28;20816;-47
2021/08/30 00:41:50;;;;;;;4.30;3.23;;;16.10;99.90;;;;;;5015865;28;20477;-47
2021/08/30 00:44:16;;;;;;;5.27;3.30;;;16.20;99.90;;;;;;5019212;28;20452;-49
2021/08/30 00:46:43;;;;;;;3.93;3.30;;;16.20;99.90;;;;;;5018926;28;20483;-47
2021/08/30 00:49:10;;;;;;;3.50;3.20;;;16.20;99.90;;;;;;5019124;28;20448;-47
2021/08/30 00:51:36;;;;;;;8.63;3.63;;;16.20;99.90;;;;;;5019066;28;20526;-42
2021/08/30 00:54:03;;;;;;;4.47;3.57;;;16.20;99.90;;;;;;5019056;28;20757;-45
2021/08/30 00:56:30;;;;;;;3.63;2.93;;;16.20;99.90;;;;;;5019054;28;20514;-46
2021/08/30 00:58:58;;;;;;;3.10;2.63;;;16.20;99.90;;;;;;5019146;28;20926;-44
2021/08/30 01:01:25;;;;;;;4.03;3.00;;;16.20;99.90;;;;;;5018687;28;20510;-45
2021/08/30 01:03:53;;;;;;;5.30;3.70;;;16.20;99.90;;;;;;5018544;28;20441;-45
2021/08/30 01:06:26;;;;;;;3.97;3.37;;;16.20;99.90;;;;;;5018848;28;20445;-46
2021/08/30 01:09:00;;;;;;;5.27;4.33;;;16.20;99.90;;;;;;5018760;28;20814;-47
2021/08/30 01:11:31;;;;;;;4.70;3.30;;;16.20;99.90;;;;;;5019219;28;20539;-47
2021/08/30 01:14:03;;;;;;;4.70;3.20;;;16.30;99.90;;;;;;5019031;28;20437;-43
2021/08/30 01:16:31;;;;;;;3.43;3.10;;;16.30;99.90;;;;;;5019426;28;20450;-45
2021/08/30 01:18:59;;;;;;;4.57;3.00;;;16.30;99.90;;;;;;5019160;28;20797;-49
2021/08/30 01:21:32;;;;;;;5.10;4.13;;;16.30;99.90;;;;;;5018832;28;20475;-45
2021/08/30 01:24:02;;;;;;;6.60;4.60;;;16.30;99.90;;;;;;5018169;28;20444;-46
2021/08/30 01:26:32;;;;;;;3.90;2.80;;;16.30;99.90;;;;;;5018435;28;20503;-45
2021/08/30 01:29:06;;;;;;;4.00;3.43;;;16.30;99.90;;;;;;5018156;28;20448;-44
2021/08/30 01:31:44;;;;;;;5.37;3.60;;;16.30;99.90;;;;;;5018195;28;20816;-47
2021/08/30 01:34:14;;;;;;;4.40;3.40;;;16.30;99.90;;;;;;5017976;28;20460;-42
2021/08/30 01:36:42;;;;;;;4.70;3.57;;;16.30;99.90;;;;;;5018458;28;20542;-45
2021/08/30 01:39:09;;;;;;;3.70;2.97;;;16.30;99.90;;;;;;5018400;28;20456;-47
2021/08/30 01:41:37;;;;;;;4.53;4.10;;;16.20;99.90;;;;;;5017906;28;20511;-41
2021/08/30 01:44:06;;;;;;;4.93;4.40;;;16.20;99.90;;;;;;5018079;28;20457;-46
2021/08/30 01:46:33;;;;;;;5.17;4.00;;;16.20;99.90;;;;;;5017967;28;20445;-45
2021/08/30 01:49:01;;;;;;;5.27;4.20;;;16.20;99.90;;;;;;5018032;28;20509;-47
2021/08/30 01:51:30;;;;;;;3.60;3.30;;;16.20;99.90;;;;;;5017713;28;20457;-46
2021/08/30 01:53:57;;;;;;;4.20;3.43;;;16.20;99.90;;;;;;5017320;28;20455;-44
2021/08/30 01:56:27;;;;;;;7.80;4.43;;;16.10;99.90;;;;;;5018213;28;20771;-42
2021/08/30 02:01:40;;;;;;;4.70;3.63;;;16.20;99.90;;;;;;5017519;28;20917;-42
2021/08/30 02:04:07;;;;;;;4.77;3.93;;;16.10;99.90;;;;;;5017881;28;20455;-44
2021/08/30 02:06:35;;;;;;;4.30;3.50;;;16.10;99.90;;;;;;5018004;28;20503;-49
2021/08/30 02:09:04;;;;;;;4.40;3.37;;;16.10;99.90;;;;;;5017256;28;20902;-42
2021/08/30 02:11:32;;;;;;;7.07;3.90;;;16.10;99.90;;;;;;5017998;28;20448;-48
2021/08/30 02:13:59;;;;;;;3.97;3.30;;;16.10;99.90;;;;;;5017501;28;20473;-42
2021/08/30 02:16:27;;;;;;;4.13;3.73;;;16.10;99.90;;;;;;5017702;28;20518;-49
2021/08/30 02:18:59;;;;;;;5.07;3.40;;;16.20;99.90;;;;;;5017364;28;20556;-42
2021/08/30 02:21:32;;;;;;;5.67;3.50;;;16.20;99.90;;;;;;5017706;28;20433;-41
2021/08/30 02:24:05;;;;;;;4.60;3.40;;;16.10;99.90;;;;;;5017634;28;20488;-44
2021/08/30 02:26:37;;;;;;;4.07;3.37;;;16.10;99.90;;;;;;5017366;28;20461;-42
2021/08/30 02:29:07;;;;;;;3.50;3.17;;;16.10;99.90;;;;;;5017543;28;20495;-42
2021/08/30 02:31:36;;;;;;;3.80;3.40;;;16.10;99.90;;;;;;5017146;28;20481;-42
2021/08/30 02:34:03;;;;;;;4.50;3.50;;;16.10;99.90;;;;;;5017352;28;20487;-46
2021/08/30 02:36:30;;;;;;;5.20;3.97;;;16.10;99.90;;;;;;5017175;28;20444;-44
2021/08/30 02:38:58;;;;;;;4.97;3.53;;;16.10;99.90;;;;;;5017084;28;20503;-47
2021/08/30 02:41:27;;;;;;;4.40;3.87;;;16.10;99.90;;;;;;5016963;28;20519;-44
2021/08/30 02:43:55;;;;;;;4.10;3.70;;;16.10;99.90;;;;;;5016449;28;20484;-42
2021/08/30 02:46:22;;;;;;;4.90;3.77;;;16.00;99.90;;;;;;5017227;28;20857;-42
2021/08/30 02:48:50;;;;;;;4.73;3.70;;;16.00;99.90;;;;;;5016721;28;20511;-41
2021/08/30 02:51:17;;;;;;;5.07;4.50;;;16.00;99.90;;;;;;5016680;28;20515;-44
2021/08/30 02:53:45;;;;;;;5.00;3.77;;;16.00;99.90;;;;;;5016683;28;20441;-45
2021/08/30 02:56:12;;;;;;;6.27;4.07;;;16.00;99.90;;;;;;5016596;28;20453;-42
2021/08/30 02:58:41;;;;;;;6.57;3.90;;;16.00;99.90;;;;;;5016968;28;20460;-48
2021/08/30 03:01:08;;;;;;;3.90;3.50;;;16.00;99.90;;;;;;5016968;28;20796;-50
2021/08/30 03:03:35;;;;;;;4.37;3.40;;;16.00;99.90;;;;;;5016648;28;20485;-49
2021/08/30 03:06:02;;;;;;;3.80;3.30;;;16.00;99.90;;;;;;5015993;28;20471;-47
2021/08/30 03:08:29;;;;;;;5.50;3.97;;;16.00;99.90;;;;;;5016203;28;20523;-49
2021/08/30 03:10:57;;;;;;;5.23;4.00;;;16.00;99.90;;;;;;5016820;28;20445;-47
2021/08/30 03:13:24;;;;;;;4.17;3.77;;;16.00;99.90;;;;;;5016779;28;20964;-45
2021/08/30 03:15:53;;;;;;;4.57;3.60;;;16.00;99.90;;;;;;5016557;28;20457;-45
2021/08/30 03:18:21;;;;;;;4.30;3.70;;;16.00;99.90;;;;;;5016563;28;20938;-48
2021/08/30 03:20:48;;;;;;;4.30;3.67;;;16.00;99.90;;;;;;5016590;28;20477;-43
2021/08/30 03:23:17;;;;;;;4.27;3.67;;;16.00;99.90;;;;;;5016159;28;20532;-45
2021/08/30 03:25:44;;;;;;;4.37;3.80;;;16.00;99.90;;;;;;5015908;28;20455;-46
2021/08/30 03:28:12;;;;;;;4.60;4.20;;;16.00;99.90;;;;;;5016261;28;20461;-43
2021/08/30 03:30:40;;;;;;;5.83;4.37;;;16.00;99.90;;;;;;5015696;28;20961;-46
2021/08/30 03:33:08;;;;;;;8.80;4.30;;;16.00;99.90;;;;;;5016069;28;20500;-43
2021/08/30 03:35:36;;;;;;;6.00;4.00;;;16.00;99.90;;;;;;5016692;28;20468;-44
2021/08/30 03:38:03;;;;;;;4.80;4.03;;;16.00;99.90;;;;;;5015663;28;20457;-45
2021/08/30 03:40:31;;;;;;;4.20;3.80;;;16.00;99.90;;;;;;5016533;28;20453;-43
2021/08/30 03:42:59;;;;;;;4.50;4.10;;;15.90;99.90;;;;;;5016017;28;20477;-43
2021/08/30 03:45:28;;;;;;;6.13;4.33;;;16.00;99.90;;;;;;5016073;28;20453;-43
2021/08/30 03:47:55;;;;;;;4.33;3.33;;;16.00;99.90;;;;;;5016843;28;20457;-43
2021/08/30 03:50:24;;;;;;;4.90;3.70;;;15.90;99.90;;;;;;5016436;28;20449;-49
2021/08/30 03:52:52;;;;;;;7.50;4.20;;;15.90;99.90;;;;;;5015502;28;20445;-48
2021/08/30 03:55:19;;;;;;;4.20;3.53;;;15.90;99.90;;;;;;5016224;28;21000;-46
2021/08/30 03:57:48;;;;;;;5.10;4.60;;;16.00;99.90;;;;;;5015731;28;20886;-45
2021/08/30 04:00:16;;;;;;;6.43;4.30;;;16.00;99.90;;;;;;5016503;28;20449;-44
2021/08/30 04:02:42;;;;;;;10.50;5.80;;;16.00;99.90;;;;;;5015653;28;21036;-45
2021/08/30 04:05:11;;;;;;;5.53;4.57;;;16.00;99.90;;;;;;5015685;28;20465;-49
2021/08/30 04:07:41;;;;;;;5.67;3.93;;;16.00;99.90;;;;;;5016599;28;20456;-43
2021/08/30 04:10:08;;;;;;;5.83;5.23;;;15.90;99.90;;;;;;5016280;28;20903;-46
2021/08/30 04:12:35;;;;;;;5.97;4.90;;;16.00;99.90;;;;;;5015853;28;20768;-44
2021/08/30 04:15:02;;;;;;;6.20;5.57;;;16.00;99.90;;;;;;5015822;28;20460;-47
2021/08/30 04:17:28;;;;;;;5.20;4.70;;;16.00;99.90;;;;;;5018890;28;20459;-45
2021/08/30 04:19:55;;;;;;;8.70;4.77;;;16.00;99.90;;;;;;5019117;28;20457;-42
2021/08/30 04:22:22;;;;;;;7.80;5.83;;;16.00;99.90;;;;;;5019815;28;20449;-44
2021/08/30 04:24:50;;;;;;;5.20;4.70;;;16.00;99.90;;;;;;5019565;28;20472;-45
2021/08/30 04:27:17;;;;;;;7.50;5.40;;;16.00;99.90;;;;;;5019408;28;20473;-45
2021/08/30 04:29:44;;;;;;;6.93;5.70;;;16.00;99.90;;;;;;5019222;28;20522;-45
2021/08/30 04:32:12;;;;;;;8.10;5.40;;;16.00;99.90;;;;;;5019175;28;20477;-49
2021/08/30 04:34:41;;;;;;;6.83;4.87;;;16.00;99.90;;;;;;5019810;28;20523;-47
2021/08/30 04:37:08;;;;;;;5.90;4.50;;;16.00;99.90;;;;;;5019531;28;20507;-42
2021/08/30 04:39:35;;;;;;;8.10;5.70;;;16.00;99.90;;;;;;5019289;28;20514;-44
2021/08/30 04:42:05;;;;;;;6.67;5.03;;;16.00;99.90;;;;;;5019561;28;20488;-43
2021/08/30 04:44:32;;;;;;;5.70;4.50;;;15.90;99.90;;;;;;5019293;28;20496;-48
2021/08/30 04:47:00;;;;;;;8.50;5.53;;;15.90;99.90;;;;;;5019142;28;20531;-42
2021/08/30 04:49:27;;;;;;;5.73;4.60;;;15.90;99.90;;;;;;5019449;28;20528;-44
2021/08/30 04:51:53;;;;;;;5.40;4.67;;;16.00;99.90;;;;;;5019146;28;20445;-44
2021/08/30 04:54:21;;;;;;;8.43;6.07;;;16.00;99.90;;;;;;5018802;28;20511;-43
2021/08/30 04:56:48;;;;;;;7.00;5.60;;;16.00;99.90;;;;;;5019272;28;20812;-42
2021/08/30 04:59:16;;;;;;;8.67;4.70;;;16.00;99.90;;;;;;5019091;28;20524;-43
2021/08/30 05:01:42;;;;;;;6.80;5.10;;;16.00;99.90;;;;;;5019378;28;20456;-44
2021/08/30 05:04:09;;;;;;;8.27;5.93;;;16.00;99.90;;;;;;5019082;28;20538;-48
2021/08/30 05:06:36;;;;;;;8.10;6.07;;;16.00;99.90;;;;;;5019154;28;20811;-46
2021/08/30 05:09:03;;;;;;;10.40;5.87;;;16.00;99.90;;;;;;5018883;28;20507;-44
2021/08/30 05:11:30;;;;;;;8.97;6.07;;;16.00;99.90;;;;;;5018441;28;20465;-44
2021/08/30 05:13:58;;;;;;;8.20;6.40;;;16.10;99.90;;;;;;5018570;28;20453;-46
2021/08/30 05:16:27;;;;;;;7.70;6.50;;;16.10;99.90;;;;;;5018927;28;20922;-48
2021/08/30 05:18:53;;;;;;;8.07;6.70;;;16.10;99.90;;;;;;5018754;28;20757;-48
2021/08/30 05:21:20;;;;;;;7.30;5.70;;;16.10;99.90;;;;;;5018503;28;20540;-46
2021/08/30 05:23:47;;;;;;;9.30;6.77;;;16.20;99.90;;;;;;5018105;28;21043;-44
2021/08/30 05:26:14;;;;;;;7.70;5.93;;;16.20;99.90;;;;;;5018220;28;20511;-44
2021/08/30 05:28:41;;;;;;;8.23;6.03;;;16.20;99.90;;;;;;5017592;28;20503;-49
2021/08/30 05:31:07;;;;;;;7.37;6.03;;;16.20;99.90;;;;;;5018516;28;20449;-48
2021/08/30 05:33:37;;;;;;;7.80;5.83;;;16.20;99.90;;;;;;5018447;28;20540;-46
2021/08/30 05:36:04;;;;;;;10.33;7.07;;;16.20;99.90;;;;;;5018121;28;20461;-45
2021/08/30 05:38:31;;;;;;;12.10;7.90;;;16.20;99.90;;;;;;5018135;28;20460;-47
2021/08/30 05:40:58;;;;;;;10.63;7.67;;;16.20;99.90;;;;;;5018068;28;20449;-45
2021/08/30 05:43:24;;;;;;;9.50;7.63;;;16.20;99.90;;;;;;5017827;28;20480;-44
2021/08/30 05:45:51;;;;;;;11.27;7.77;;;16.30;99.90;;;;;;5018179;28;20554;-45
2021/08/30 05:48:18;;;;;;;11.67;7.77;;;16.30;99.90;;;;;;5018050;28;20492;-46
2021/08/30 05:50:46;;;;;;;10.50;7.77;;;16.30;99.90;;;;;;5018108;28;20767;-44
2021/08/30 05:53:13;;;;;;;11.10;7.60;;;16.30;99.90;;;;;;5017931;28;20453;-42
2021/08/30 05:55:39;;;;;;;10.07;6.90;;;16.30;99.90;;;;;;5018014;28;20445;-42
2021/08/30 05:58:06;;;;;;;11.13;7.50;;;16.30;99.90;;;;;;5017515;28;20531;-44
2021/08/30 06:00:33;;;;;;;10.10;8.07;;;16.40;99.90;;;;;;5018106;28;20457;-44
2021/08/30 06:02:59;;;;;;;9.10;7.10;;;16.40;99.90;;;;;;5017770;28;20511;-42
2021/08/30 06:05:26;;;;;;;10.60;7.80;;;16.40;99.90;;;;;;5017760;28;20449;-43
2021/08/30 06:07:54;;;;;;;11.93;7.70;;;16.40;99.90;;;;;;5017890;28;20453;-43
2021/08/30 06:10:21;;;;;;;9.97;7.50;;;16.50;99.90;;;;;;5017327;28;20547;-45
2021/08/30 06:12:48;;;;;;;11.47;8.03;;;16.50;99.90;;;;;;5017600;28;20453;-45
2021/08/30 06:15:15;;;;;;;12.03;8.00;;;16.50;99.90;;;;;;5017622;28;20441;-48
2021/08/30 06:17:42;;;;;;;11.97;8.57;;;16.60;99.90;;;;;;5009877;28;20454;-46
2021/08/30 06:20:10;;;;;;;12.27;9.37;;;16.60;99.90;;;;;;4999617;28;20454;-49
2021/08/30 06:22:37;;;;;;;11.73;8.93;;;16.70;99.90;;;;;;4999669;28;20516;-48
2021/08/30 06:25:06;;;;;;;12.10;8.17;;;16.80;99.90;;;;;;4999823;28;20497;-43
2021/08/30 06:27:32;;;;;;;14.93;10.10;;;16.80;99.90;;;;;;4999710;28;20450;-42
2021/08/30 06:29:59;;;;;;;15.30;10.90;;;16.80;99.90;;;;;;4999586;28;20469;-42
2021/08/30 06:32:26;;;;;;;12.77;8.80;;;16.80;99.90;;;;;;4998589;28;20493;-45
2021/08/30 06:34:53;;;;;;;14.90;10.00;;;16.90;99.90;;;;;;4997119;28;20516;-43
2021/08/30 06:37:19;;;;;;;14.90;11.73;;;16.90;99.90;;;;;;5015446;28;20445;-44
2021/08/30 06:39:49;;;;;;;13.17;10.27;;;16.90;99.90;;;;;;5359641;22;20565;-44
2021/08/30 06:42:17;;;;;;;14.53;10.80;;;17.00;99.90;;;;;;5036487;28;20983;-45
2021/08/30 06:44:44;;;;;;;21.50;12.03;;;17.00;99.90;;;;;;5037817;28;20480;-46
2021/08/30 06:47:11;;;;;;;20.63;12.00;;;17.00;99.90;;;;;;5038532;28;20911;-45
2021/08/30 06:49:38;;;;;;;25.47;13.30;;;17.10;99.90;;;;;;5039992;28;20460;-47
2021/08/30 06:52:05;;;;;;;18.17;12.30;;;17.10;99.90;;;;;;5038613;28;20447;-45
2021/08/30 06:54:34;;;;;;;18.90;12.87;;;17.10;99.90;;;;;;5038632;28;20860;-48
2021/08/30 06:57:01;;;;;;;19.83;13.77;;;17.20;99.90;;;;;;5038131;28;20463;-47
2021/08/30 06:59:29;;;;;;;15.80;12.70;;;17.10;99.90;;;;;;5037924;28;20457;-44
2021/08/30 07:01:55;;;;;;;16.10;11.63;;;17.20;99.90;;;;;;5044120;28;20451;-41
2021/08/30 07:04:22;;;;;;;18.60;12.27;;;17.20;99.90;;;;;;5037688;28;20479;-44
2021/08/30 07:06:49;;;;;;;16.23;10.67;;;17.10;99.90;;;;;;5036480;28;20980;-42
2021/08/30 07:09:16;;;;;;;18.67;12.53;;;17.10;99.90;;;;;;5035576;28;20456;-41
2021/08/30 07:11:43;;;;;;;14.80;11.57;;;17.20;99.90;;;;;;5040150;28;20432;-42
2021/08/30 07:14:10;;;;;;;16.33;10.70;;;17.20;99.90;;;;;;5035678;28;20463;-41
2021/08/30 07:16:38;;;;;;;16.53;11.10;;;17.20;99.90;;;;;;5036856;28;20789;-44
2021/08/30 07:19:05;;;;;;;21.13;11.40;;;17.30;99.90;;;;;;5038044;28;20452;-42
2021/08/30 07:21:32;;;;;;;16.00;10.80;;;17.30;99.90;;;;;;5037715;28;20451;-41
2021/08/30 07:23:58;;;;;;;15.50;11.03;;;17.30;99.90;;;;;;5037956;28;20503;-43
2021/08/30 07:26:25;;;;;;;14.67;9.33;;;17.40;99.90;;;;;;5039338;28;20551;-42
2021/08/30 07:28:52;;;;;;;20.23;9.20;;;17.50;99.90;;;;;;5038749;28;20459;-43
2021/08/30 07:31:19;;;;;;;14.37;9.03;;;17.60;99.90;;;;;;5038467;28;20742;-42
2021/08/30 07:33:47;;;;;;;17.87;10.80;;;17.60;99.90;;;;;;5037645;28;20456;-41
2021/08/30 07:36:14;;;;;;;14.90;11.03;;;17.70;99.90;;;;;;5038306;28;20486;-41
2021/08/30 07:38:43;;;;;;;11.90;9.07;;;17.70;99.90;;;;;;5037359;28;20796;-40
2021/08/30 07:41:10;;;;;;;12.40;9.13;;;17.80;99.90;;;;;;5038600;28;20436;-44
2021/08/30 07:43:36;;;;;;;12.20;9.73;;;17.90;99.90;;;;;;5037473;28;20471;-42
2021/08/30 07:46:03;;;;;;;13.90;8.80;;;18.00;99.90;;;;;;5037917;28;20448;-44
2021/08/30 07:48:30;;;;;;;12.90;10.30;;;18.10;99.90;;;;;;5037731;28;20514;-39
2021/08/30 07:50:58;;;;;;;13.23;9.40;;;18.10;99.90;;;;;;5037237;28;20481;-41
2021/08/30 07:53:27;;;;;;;14.83;8.77;;;18.10;99.90;;;;;;5037663;28;20452;-42
2021/08/30 07:55:54;;;;;;;12.47;9.20;;;18.10;99.90;;;;;;5037127;28;20447;-43
2021/08/30 07:58:21;;;;;;;12.43;9.30;;;18.20;99.90;;;;;;5037601;28;20448;-41
2021/08/30 08:00:47;;;;;;;13.80;9.03;;;18.20;99.90;;;;;;5037679;28;20526;-41
2021/08/30 08:03:14;;;;;;;14.90;9.07;;;18.10;99.90;;;;;;5037037;28;20459;-42
2021/08/30 08:05:41;;;;;;;13.50;9.10;;;18.10;99.90;;;;;;5036369;28;20486;-40
2021/08/30 08:08:09;;;;;;;13.13;8.77;;;18.10;99.90;;;;;;5037074;28;20509;-43
2021/08/30 08:10:35;;;;;;;12.80;8.40;;;18.00;99.90;;;;;;5036854;28;20452;-43
2021/08/30 08:13:02;;;;;;;12.03;8.80;;;18.00;99.90;;;;;;5036846;28;20518;-44
2021/08/30 08:15:29;;;;;;;13.00;8.90;;;18.00;99.90;;;;;;5036889;28;21045;-42
2021/08/30 08:17:55;;;;;;;10.50;8.90;;;18.10;99.90;;;;;;5036421;28;20494;-43
2021/08/30 08:20:22;;;;;;;10.40;7.73;;;18.10;99.90;;;;;;5036732;28;20491;-42
2021/08/30 08:22:49;;;;;;;13.40;8.70;;;18.30;99.90;;;;;;5036545;28;20813;-41
2021/08/30 08:25:17;;;;;;;13.50;9.40;;;18.30;99.90;;;;;;5036979;28;20484;-42
2021/08/30 08:27:44;;;;;;;16.40;8.33;;;18.40;99.90;;;;;;5037059;28;20452;-44
2021/08/30 08:30:11;;;;;;;11.57;8.63;;;18.40;99.90;;;;;;5037139;28;20502;-48
2021/08/30 08:32:41;;;;;;;12.80;9.03;;;18.40;99.90;;;;;;5036578;28;20456;-45
2021/08/30 08:35:09;;;;;;;15.97;9.53;;;18.50;99.90;;;;;;5036692;28;20772;-42
2021/08/30 08:37:35;;;;;;;9.97;7.90;;;18.50;99.90;;;;;;5036115;28;20447;-46
2021/08/30 08:40:02;;;;;;;11.30;7.87;;;18.50;99.90;;;;;;5035499;28;20495;-48
2021/08/30 08:42:30;;;;;;;8.77;6.57;;;18.50;99.90;;;;;;5036100;28;20770;-43
2021/08/30 08:44:57;;;;;;;10.17;7.80;;;18.50;99.90;;;;;;5036490;28;20476;-44
2021/08/30 08:47:24;;;;;;;9.47;7.67;;;18.40;99.90;;;;;;5036914;28;20921;-44
2021/08/30 08:49:52;;;;;;;14.43;8.23;;;18.40;99.90;;;;;;5036437;28;20868;-46
2021/08/30 08:52:20;;;;;;;9.17;8.00;;;18.40;99.90;;;;;;5034736;28;20450;-43
2021/08/30 08:54:47;;;;;;;11.60;7.70;;;18.40;99.90;;;;;;5034394;28;20448;-40
2021/08/30 08:57:14;;;;;;;9.73;6.97;;;18.40;99.90;;;;;;5034559;28;20995;-44
2021/08/30 08:59:54;;;;;;;10.40;6.97;;;18.40;99.90;;;;;;5043525;28;20492;-48
2021/08/30 09:02:27;;;;;;;11.93;7.57;;;18.40;99.90;;;;;;5055070;28;20424;-45
2021/08/30 09:04:55;;;;;;;9.20;6.67;;;18.50;99.90;;;;;;5058773;28;20451;-44
2021/08/30 09:07:30;;;;;;;9.77;6.87;;;18.50;99.90;;;;;;5058825;28;20459;-45
2021/08/30 09:09:59;;;;;;;60.53;37.47;;;18.50;99.90;;;;;;5059447;28;20439;-44
2021/08/30 09:12:26;;;;;;;35.50;22.70;;;18.50;99.90;;;;;;5059806;28;20436;-42
2021/08/30 09:14:55;;;;;;;23.50;13.97;;;18.50;99.90;;;;;;5059454;28;20467;-42
2021/08/30 09:17:21;;;;;;;9.10;6.10;;;18.50;99.90;;;;;;5059220;28;20464;-39
2021/08/30 09:19:53;;;;;;;8.63;6.97;;;18.50;99.90;;;;;;5058959;28;20500;-42
2021/08/30 09:22:34;;;;;;;7.67;5.57;;;18.50;99.90;;;;;;5058731;28;20482;-43
2021/08/30 09:25:09;;;;;;;8.67;6.27;;;18.50;99.90;;;;;;5058160;28;20448;-43
2021/08/30 09:27:36;;;;;;;10.60;7.33;;;18.60;99.90;;;;;;5056096;28;20467;-41
2021/08/30 09:30:06;;;;;;;10.90;6.80;;;18.60;99.90;;;;;;5057445;28;20440;-42
2021/08/30 09:32:34;;;;;;;9.47;7.30;;;18.70;99.90;;;;;;5057605;28;20444;-44
2021/08/30 09:35:04;;;;;;;7.80;6.40;;;18.80;99.90;;;;;;5056516;28;20437;-41
2021/08/30 09:37:35;;;;;;;11.00;7.63;;;18.80;99.90;;;;;;5057312;28;20433;-44
2021/08/30 09:40:04;;;;;;;9.17;7.23;;;18.90;99.90;;;;;;5037620;28;20477;-45
2021/08/30 09:42:33;;;;;;;8.63;7.67;;;18.80;99.90;;;;;;5044794;28;20417;-42
2021/08/30 09:45:11;;;;;;;8.30;6.80;;;18.90;99.90;;;;;;5056502;28;20520;-43
2021/08/30 09:47:47;;;;;;;8.77;7.83;;;18.90;99.90;;;;;;5056881;28;20782;-47
2021/08/30 09:50:14;;;;;;;9.90;6.90;;;18.90;99.90;;;;;;5057043;28;20562;-41
2021/08/30 09:52:41;;;;;;;9.37;7.30;;;19.00;99.90;;;;;;5057219;28;20440;-42
2021/08/30 09:55:08;;;;;;;10.33;9.07;;;19.00;99.90;;;;;;5055941;28;20452;-41
2021/08/30 09:57:37;;;;;;;9.00;7.73;;;19.00;99.90;;;;;;5057971;28;20441;-42
2021/08/30 10:00:06;;;;;;;10.20;7.33;;;19.00;99.90;;;;;;5057281;28;20444;-41
2021/08/30 10:02:35;;;;;;;8.70;7.13;;;19.00;99.90;;;;;;5054747;28;20774;-43
2021/08/30 10:05:03;;;;;;;11.90;7.50;;;18.90;99.90;;;;;;5057584;28;20480;-44
2021/08/30 10:07:33;;;;;;;7.70;6.57;;;18.90;99.90;;;;;;5057504;28;20471;-42
2021/08/30 10:10:01;;;;;;;7.07;5.93;;;18.90;99.90;;;;;;5049771;28;20440;-46
2021/08/30 10:12:28;;;;;;;6.53;5.90;;;18.80;99.90;;;;;;5057430;28;20528;-44
2021/08/30 10:14:55;;;;;;;7.87;6.83;;;18.80;99.90;;;;;;5057575;28;20451;-45
2021/08/30 10:17:22;;;;;;;7.30;6.60;;;18.80;99.90;;;;;;5057143;28;20440;-44
2021/08/30 10:19:59;;;;;;;21.83;12.10;;;18.80;99.90;;;;;;5057371;28;20436;-45
2021/08/30 10:22:27;;;;;;;10.63;7.53;;;18.80;99.90;;;;;;5057147;28;20470;-42
2021/08/30 10:25:02;;;;;;;8.83;6.60;;;18.70;99.90;;;;;;5057074;28;20863;-46
2021/08/30 10:27:31;;;;;;;19.93;7.90;;;18.70;99.90;;;;;;5057124;28;20463;-47
2021/08/30 10:30:11;;;;;;;6.90;6.20;;;18.80;99.90;;;;;;5057299;28;20455;-43
2021/08/30 10:32:43;;;;;;;9.20;5.83;;;18.80;99.90;;;;;;5057560;28;20444;-46
2021/08/30 10:35:20;;;;;;;8.33;6.17;;;18.80;99.90;;;;;;5057237;28;20436;-50
2021/08/30 10:38:01;;;;;;;8.20;6.10;;;18.80;99.90;;;;;;5057303;28;20428;-45
2021/08/30 10:40:30;;;;;;;6.73;5.93;;;18.80;99.90;;;;;;5057138;28;20479;-42
2021/08/30 10:43:04;;;;;;;6.67;6.07;;;18.80;99.90;;;;;;5057143;28;20436;-45
2021/08/30 10:45:42;;;;;;;5.47;4.97;;;18.80;99.90;;;;;;5057182;28;20448;-48
2021/08/30 10:48:14;;;;;;;5.30;4.80;;;18.80;99.90;;;;;;5058029;28;20425;-44
2021/08/30 10:50:48;;;;;;;6.93;5.60;;;18.80;99.90;;;;;;5057236;28;20424;-44
2021/08/30 10:53:18;;;;;;;8.53;6.10;;;18.90;99.90;;;;;;5057449;28;20453;-41
2021/08/30 10:55:48;;;;;;;9.67;6.40;;;18.90;99.90;;;;;;5057205;28;20432;-41
2021/08/30 10:58:18;;;;;;;6.80;5.30;;;18.90;99.90;;;;;;5054390;28;20452;-49
2021/08/30 11:00:46;;;;;;;8.00;5.60;;;19.00;99.90;;;;;;5037384;28;20908;-42
2021/08/30 11:03:25;;;;;;;6.47;5.77;;;19.10;99.90;;;;;;5038200;28;20452;-42
2021/08/30 11:06:02;;;;;;;6.70;5.70;;;19.10;99.90;;;;;;5037767;28;20468;-42
2021/08/30 11:08:29;;;;;;;6.30;5.57;;;19.20;99.90;;;;;;5036404;28;20479;-43
2021/08/30 11:11:07;;;;;;;6.30;4.83;;;19.30;99.90;;;;;;5035592;28;20471;-42
2021/08/30 11:13:33;;;;;;;6.10;4.50;;;19.40;99.90;;;;;;5036941;28;20513;-42
2021/08/30 11:16:00;;;;;;;5.10;4.50;;;19.40;99.90;;;;;;5036600;28;20440;-42
2021/08/30 11:18:27;;;;;;;6.70;5.20;;;19.40;99.90;;;;;;5036933;28;20444;-41
2021/08/30 11:20:54;;;;;;;5.13;4.63;;;19.50;99.90;;;;;;5037523;28;20448;-43
2021/08/30 11:23:22;;;;;;;5.10;4.60;;;19.60;99.90;;;;;;5037095;28;20497;-42
2021/08/30 11:25:49;;;;;;;4.90;4.37;;;19.80;99.90;;;;;;5036614;28;20482;-44
2021/08/30 11:28:16;;;;;;;7.57;5.30;;;19.90;99.90;;;;;;5037516;28;20537;-44
2021/08/30 11:30:43;;;;;;;5.93;4.03;;;20.00;99.90;;;;;;5037846;28;20483;-43
2021/08/30 11:33:21;;;;;;;4.30;3.90;;;20.00;99.90;;;;;;5036385;28;20927;-42
2021/08/30 11:35:48;;;;;;;6.83;4.37;;;19.90;99.90;;;;;;5036309;28;20534;-42
2021/08/30 11:38:16;;;;;;;6.60;4.73;;;19.80;99.90;;;;;;5036941;28;20443;-44
2021/08/30 11:40:44;;;;;;;6.37;5.03;;;19.70;99.90;;;;;;5036647;28;20472;-43
2021/08/30 11:43:15;;;;;;;6.57;4.93;;;19.70;99.90;;;;;;5036672;28;20486;-44
2021/08/30 11:45:42;;;;;;;7.40;5.93;;;19.80;99.90;;;;;;5033182;28;20468;-44
2021/08/30 11:48:14;;;;;;;7.37;5.07;;;19.90;99.90;;;;;;5034684;28;20755;-44
2021/08/30 11:50:41;;;;;;;10.07;6.50;;;20.10;99.90;;;;;;5034792;28;20523;-45
2021/08/30 11:53:11;;;;;;;6.63;5.40;;;20.30;99.90;;;;;;5034439;28;20925;-42
2021/08/30 11:55:39;;;;;;;7.03;4.67;;;20.50;99.90;;;;;;5036517;28;20436;-43
2021/08/30 11:58:07;;;;;;;5.13;4.63;;;20.60;99.90;;;;;;5036566;28;20456;-45
2021/08/30 12:00:34;;;;;;;7.20;5.27;;;20.60;99.90;;;;;;5036336;28;20451;-44
2021/08/30 12:03:13;;;;;;;5.20;4.60;;;20.60;99.90;;;;;;5036642;28;20514;-41
2021/08/30 12:05:44;;;;;;;9.17;5.70;;;20.70;99.90;;;;;;5035161;28;20533;-45
2021/08/30 12:08:11;;;;;;;4.40;3.57;;;20.70;99.90;;;;;;5034899;28;20549;-45
2021/08/30 12:10:38;;;;;;;5.10;4.20;;;20.60;99.90;;;;;;5035793;28;20487;-43
2021/08/30 12:15:51;;;;;;;4.97;4.50;;;20.40;99.90;;;;;;5034937;28;20934;-42
2021/08/30 12:20:59;;;;;;;6.50;4.63;;;20.30;99.90;;;;;;5225871;22;20503;-43
2021/08/30 12:23:26;;;;;;;6.67;4.43;;;20.10;99.90;;;;;;5016037;28;20429;-46
2021/08/30 12:25:54;;;;;;;5.70;3.93;;;20.10;99.90;;;;;;5016629;28;20559;-45
2021/08/30 12:28:22;;;;;;;6.67;5.00;;;20.10;99.90;;;;;;5015749;28;20572;-40
2021/08/30 12:30:51;;;;;;;9.87;5.10;;;20.20;99.90;;;;;;5014669;28;20445;-42
2021/08/30 12:33:20;;;;;;;4.20;3.43;;;20.30;99.90;;;;;;5031997;28;20456;-44
2021/08/30 12:35:48;;;;;;;4.63;3.80;;;20.40;99.90;;;;;;5034029;28;20448;-41
2021/08/30 12:38:18;;;;;;;5.70;4.43;;;20.40;99.90;;;;;;5036945;28;20452;-41
2021/08/30 12:40:46;;;;;;;4.97;4.00;;;20.50;99.90;;;;;;5038014;28;20452;-43
2021/08/30 12:43:15;;;;;;;5.27;4.03;;;20.40;99.90;;;;;;5037707;28;20452;-45
2021/08/30 12:45:43;;;;;;;3.60;3.17;;;20.40;99.90;;;;;;5037794;28;20502;-44
2021/08/30 12:48:10;;;;;;;3.80;3.47;;;20.20;99.90;;;;;;5037813;28;20452;-44
2021/08/30 12:50:38;;;;;;;14.13;10.67;;;20.10;99.90;;;;;;5038041;28;20448;-41
2021/08/30 12:53:06;;;;;;;4.53;3.73;;;20.10;99.90;;;;;;5037528;28;20491;-43
2021/08/30 12:55:35;;;;;;;4.20;3.43;;;20.10;99.90;;;;;;5038430;28;20760;-41